createdAt,value
2023-05-03T00:00:29.855Z,1027.37
2023-05-03T00:01:29.880Z,1027.36
2023-05-03T00:02:29.981Z,1027.38
2023-05-03T00:03:29.832Z,1027.36
2023-05-03T00:04:29.797Z,1027.36
2023-05-03T00:05:29.790Z,1027.34
2023-05-03T00:06:29.858Z,1027.35
2023-05-03T00:07:29.754Z,1027.37
2023-05-03T00:08:29.729Z,1027.34
2023-05-03T00:09:29.729Z,1027.38
2023-05-03T00:10:29.760Z,1027.34
2023-05-03T00:11:29.788Z,1027.41
2023-05-03T00:12:29.706Z,1027.43
2023-05-03T00:13:29.677Z,1027.45
2023-05-03T00:14:29.667Z,1027.43
2023-05-03T00:15:29.666Z,1027.43
2023-05-03T00:16:29.670Z,1027.48
2023-05-03T00:17:29.686Z,1027.46
2023-05-03T00:18:29.585Z,1027.46
2023-05-03T00:19:31.754Z,1027.43
2023-05-03T00:20:29.571Z,1027.48
2023-05-03T00:21:29.581Z,1027.47
2023-05-03T00:22:29.560Z,1027.45
2023-05-03T00:23:29.572Z,1027.46
2023-05-03T00:24:29.537Z,1027.46
2023-05-03T00:25:29.527Z,1027.47
2023-05-03T00:26:29.501Z,1027.45
2023-05-03T00:27:29.536Z,1027.43
2023-05-03T00:28:29.482Z,1027.50
2023-05-03T00:29:29.452Z,1027.48
2023-05-03T00:30:29.451Z,1027.51
2023-05-03T00:31:29.440Z,1027.57
2023-05-03T00:32:29.470Z,1027.62
2023-05-03T00:33:29.448Z,1027.60
2023-05-03T00:34:29.415Z,1027.56
2023-05-03T00:35:29.439Z,1027.58
2023-05-03T00:36:29.360Z,1027.57
2023-05-03T00:37:29.397Z,1027.58
2023-05-03T00:38:29.349Z,1027.56
2023-05-03T00:39:29.320Z,1027.54
2023-05-03T00:40:29.344Z,1027.58
2023-05-03T00:41:29.319Z,1027.53
2023-05-03T00:42:29.279Z,1027.58
2023-05-03T00:43:29.262Z,1027.58
2023-05-03T00:44:29.260Z,1027.54
2023-05-03T00:45:29.250Z,1027.51
2023-05-03T00:46:29.288Z,1027.54
2023-05-03T00:47:29.252Z,1027.50
2023-05-03T00:48:29.239Z,1027.52
2023-05-03T00:49:29.192Z,1027.53
2023-05-03T00:50:29.204Z,1027.53
2023-05-03T00:51:29.149Z,1027.52
2023-05-03T00:52:29.170Z,1027.53
2023-05-03T00:53:29.140Z,1027.53
2023-05-03T00:54:29.189Z,1027.48
2023-05-03T00:55:29.122Z,1027.51
2023-05-03T00:56:31.138Z,1027.46
2023-05-03T00:57:29.101Z,1027.51
2023-05-03T00:58:29.080Z,1027.48
2023-05-03T00:59:29.075Z,1027.52
2023-05-03T01:00:29.043Z,1027.48
2023-05-03T01:01:29.045Z,1027.54
2023-05-03T01:02:29.043Z,1027.52
2023-05-03T01:03:29.103Z,1027.51
2023-05-03T01:04:29.009Z,1027.54
2023-05-03T01:05:29.003Z,1027.55
2023-05-03T01:06:28.979Z,1027.52
2023-05-03T01:07:28.936Z,1027.53
2023-05-03T01:08:28.927Z,1027.53
2023-05-03T01:09:28.924Z,1027.54
2023-05-03T01:10:28.910Z,1027.53
2023-05-03T01:11:28.887Z,1027.54
2023-05-03T01:12:28.914Z,1027.53
2023-05-03T01:13:28.870Z,1027.54
2023-05-03T01:14:28.870Z,1027.52
2023-05-03T01:15:28.873Z,1027.51
2023-05-03T01:16:28.854Z,1027.54
2023-05-03T01:17:28.919Z,1027.52
2023-05-03T01:18:28.803Z,1027.57
2023-05-03T01:19:28.773Z,1027.57
2023-05-03T01:20:28.802Z,1027.52
2023-05-03T01:21:28.744Z,1027.56
2023-05-03T01:22:28.786Z,1027.55
2023-05-03T01:23:28.732Z,1027.54
2023-05-03T01:24:28.736Z,1027.53
2023-05-03T01:25:28.747Z,1027.58
2023-05-03T01:26:28.733Z,1027.54
2023-05-03T01:27:28.713Z,1027.53
2023-05-03T01:28:28.666Z,1027.52
2023-05-03T01:29:28.656Z,1027.53
2023-05-03T01:30:28.681Z,1027.51
2023-05-03T01:31:28.637Z,1027.56
2023-05-03T01:32:28.667Z,1027.52
2023-05-03T01:33:28.592Z,1027.55
2023-05-03T01:34:28.598Z,1027.54
2023-05-03T01:35:28.581Z,1027.53
2023-05-03T01:36:28.553Z,1027.55
2023-05-03T01:37:28.545Z,1027.59
2023-05-03T01:38:28.553Z,1027.54
2023-05-03T01:39:28.538Z,1027.56
2023-05-03T01:40:28.500Z,1027.60
2023-05-03T01:41:28.544Z,1027.56
2023-05-03T01:42:28.502Z,1027.57
2023-05-03T01:43:28.462Z,1027.54
2023-05-03T01:44:28.464Z,1027.57
2023-05-03T01:45:28.462Z,1027.60
2023-05-03T01:46:28.461Z,1027.54
2023-05-03T01:47:28.451Z,1027.56
2023-05-03T01:48:28.397Z,1027.62
2023-05-03T01:49:28.400Z,1027.57
2023-05-03T01:50:28.383Z,1027.58
2023-05-03T01:51:28.382Z,1027.62
2023-05-03T01:52:28.351Z,1027.60
2023-05-03T01:53:28.329Z,1027.64
2023-05-03T01:54:28.351Z,1027.64
2023-05-03T01:55:28.310Z,1027.61
2023-05-03T01:56:28.307Z,1027.65
2023-05-03T01:57:28.324Z,1027.63
2023-05-03T01:58:28.305Z,1027.68
2023-05-03T01:59:28.260Z,1027.68
2023-05-03T02:00:28.269Z,1027.72
2023-05-03T02:01:28.419Z,1027.76
2023-05-03T02:02:28.233Z,1027.77
2023-05-03T02:03:28.237Z,1027.80
2023-05-03T02:04:28.237Z,1027.77
2023-05-03T02:05:28.205Z,1027.80
2023-05-03T02:06:28.222Z,1027.81
2023-05-03T02:07:28.184Z,1027.81
2023-05-03T02:08:28.132Z,1027.83
2023-05-03T02:09:28.130Z,1027.83
2023-05-03T02:10:28.167Z,1027.85
2023-05-03T02:11:28.097Z,1027.84
2023-05-03T02:12:28.087Z,1027.82
2023-05-03T02:13:28.095Z,1027.81
2023-05-03T02:14:28.067Z,1027.81
2023-05-03T02:15:28.045Z,1027.84
2023-05-03T02:16:28.077Z,1027.90
2023-05-03T02:17:28.042Z,1027.86
2023-05-03T02:18:28.023Z,1027.87
2023-05-03T02:19:28.009Z,1027.91
2023-05-03T02:20:27.973Z,1027.84
2023-05-03T02:21:28.022Z,1027.88
2023-05-03T02:22:27.965Z,1027.83
2023-05-03T02:23:27.973Z,1027.87
2023-05-03T02:24:27.919Z,1027.86
2023-05-03T02:25:27.905Z,1027.83
2023-05-03T02:26:27.893Z,1027.90
2023-05-03T02:27:27.922Z,1027.87
2023-05-03T02:28:27.866Z,1027.89
2023-05-03T02:29:27.855Z,1027.90
2023-05-03T02:30:27.857Z,1027.87
2023-05-03T02:31:27.904Z,1027.87
2023-05-03T02:32:27.846Z,1027.93
2023-05-03T02:33:27.820Z,1027.93
2023-05-03T02:34:27.786Z,1027.90
2023-05-03T02:35:27.777Z,1027.91
2023-05-03T02:36:27.817Z,1027.93
2023-05-03T02:37:27.747Z,1027.94
2023-05-03T02:38:27.771Z,1027.94
2023-05-03T02:39:27.712Z,1027.98
2023-05-03T02:40:27.742Z,1027.99
2023-05-03T02:41:27.710Z,1027.99
2023-05-03T02:42:27.705Z,1027.97
2023-05-03T02:43:27.665Z,1028.03
2023-05-03T02:44:27.647Z,1028.05
2023-05-03T02:45:27.718Z,1028.06
2023-05-03T02:46:27.698Z,1028.02
2023-05-03T02:47:27.711Z,1028.05
2023-05-03T02:48:27.624Z,1027.97
2023-05-03T02:49:27.615Z,1028.01
2023-05-03T02:50:27.560Z,1027.98
2023-05-03T02:51:27.561Z,1027.91
2023-05-03T02:52:27.575Z,1027.95
2023-05-03T02:53:27.562Z,1027.96
2023-05-03T02:54:27.536Z,1027.93
2023-05-03T02:55:27.519Z,1027.96
2023-05-03T02:56:27.513Z,1027.98
2023-05-03T02:57:27.501Z,1027.97
2023-05-03T02:58:27.472Z,1027.93
2023-05-03T02:59:27.485Z,1027.92
2023-05-03T03:00:27.445Z,1027.88
2023-05-03T03:01:27.514Z,1027.88
2023-05-03T03:02:27.526Z,1027.83
2023-05-03T03:03:27.453Z,1027.86
2023-05-03T03:04:27.379Z,1027.85
2023-05-03T03:05:27.377Z,1027.81
2023-05-03T03:06:27.405Z,1027.79
2023-05-03T03:07:27.341Z,1027.75
2023-05-03T03:08:27.352Z,1027.80
2023-05-03T03:09:27.322Z,1027.71
2023-05-03T03:10:27.344Z,1027.74
2023-05-03T03:11:27.337Z,1027.76
2023-05-03T03:12:27.369Z,1027.73
2023-05-03T03:13:27.297Z,1027.71
2023-05-03T03:14:27.323Z,1027.74
2023-05-03T03:15:27.241Z,1027.68
2023-05-03T03:16:27.276Z,1027.70
2023-05-03T03:17:27.286Z,1027.67
2023-05-03T03:18:27.194Z,1027.67
2023-05-03T03:19:27.195Z,1027.68
2023-05-03T03:20:27.201Z,1027.65
2023-05-03T03:21:27.183Z,1027.65
2023-05-03T03:22:27.153Z,1027.63
2023-05-03T03:23:27.140Z,1027.62
2023-05-03T03:24:27.183Z,1027.61
2023-05-03T03:25:27.107Z,1027.60
2023-05-03T03:26:27.154Z,1027.59
2023-05-03T03:27:27.118Z,1027.60
2023-05-03T03:28:27.138Z,1027.61
2023-05-03T03:29:27.058Z,1027.58
2023-05-03T03:30:27.083Z,1027.54
2023-05-03T03:31:27.071Z,1027.54
2023-05-03T03:32:27.038Z,1027.56
2023-05-03T03:33:27.045Z,1027.56
2023-05-03T03:34:27.096Z,1027.56
2023-05-03T03:35:26.973Z,1027.56
2023-05-03T03:36:27.008Z,1027.56
2023-05-03T03:37:26.937Z,1027.54
2023-05-03T03:38:26.928Z,1027.57
2023-05-03T03:39:26.906Z,1027.53
2023-05-03T03:40:26.924Z,1027.52
2023-05-03T03:41:26.898Z,1027.50
2023-05-03T03:42:27.004Z,1027.49
2023-05-03T03:43:26.873Z,1027.51
2023-05-03T03:44:26.915Z,1027.50
2023-05-03T03:45:26.930Z,1027.48
2023-05-03T03:46:26.919Z,1027.49
2023-05-03T03:47:26.868Z,1027.50
2023-05-03T03:48:26.813Z,1027.48
2023-05-03T03:49:26.816Z,1027.49
2023-05-03T03:50:26.906Z,1027.45
2023-05-03T03:51:26.827Z,1027.47
2023-05-03T03:52:26.736Z,1027.49
2023-05-03T03:53:26.759Z,1027.50
2023-05-03T03:54:26.738Z,1027.44
2023-05-03T03:55:26.747Z,1027.39
2023-05-03T03:56:26.746Z,1027.39
2023-05-03T03:57:26.681Z,1027.39
2023-05-03T03:58:26.743Z,1027.36
2023-05-03T03:59:26.684Z,1027.36
2023-05-03T04:00:26.676Z,1027.36
2023-05-03T04:01:26.633Z,1027.35
2023-05-03T04:02:26.697Z,1027.37
2023-05-03T04:03:26.701Z,1027.34
2023-05-03T04:04:26.613Z,1027.30
2023-05-03T04:05:26.581Z,1027.26
2023-05-03T04:06:26.615Z,1027.27
2023-05-03T04:07:26.661Z,1027.23
2023-05-03T04:08:26.618Z,1027.22
2023-05-03T04:09:26.545Z,1027.20
2023-05-03T04:10:26.573Z,1027.21
2023-05-03T04:11:26.513Z,1027.21
2023-05-03T04:12:26.471Z,1027.17
2023-05-03T04:13:26.456Z,1027.18
2023-05-03T04:14:26.485Z,1027.22
2023-05-03T04:15:26.443Z,1027.19
2023-05-03T04:16:26.466Z,1027.24
2023-05-03T04:17:26.472Z,1027.23
2023-05-03T04:18:26.406Z,1027.27
2023-05-03T04:19:26.377Z,1027.29
2023-05-03T04:20:26.364Z,1027.32
2023-05-03T04:21:26.408Z,1027.30
2023-05-03T04:22:26.358Z,1027.37
2023-05-03T04:23:26.323Z,1027.39
2023-05-03T04:24:26.322Z,1027.44
2023-05-03T04:25:26.315Z,1027.44
2023-05-03T04:26:31.819Z,1027.48
2023-05-03T04:27:27.268Z,1027.49
2023-05-03T04:28:26.283Z,1027.49
2023-05-03T04:29:26.311Z,1027.52
2023-05-03T04:30:26.294Z,1027.50
2023-05-03T04:31:26.290Z,1027.58
2023-05-03T04:32:26.266Z,1027.57
2023-05-03T04:33:26.202Z,1027.61
2023-05-03T04:34:26.207Z,1027.61
2023-05-03T04:35:26.196Z,1027.64
2023-05-03T04:36:26.208Z,1027.66
2023-05-03T04:37:26.251Z,1027.65
2023-05-03T04:38:26.134Z,1027.67
2023-05-03T04:39:26.116Z,1027.68
2023-05-03T04:40:26.105Z,1027.71
2023-05-03T04:41:26.107Z,1027.74
2023-05-03T04:42:26.122Z,1027.67
2023-05-03T04:43:26.085Z,1027.70
2023-05-03T04:44:26.061Z,1027.68
2023-05-03T04:45:26.033Z,1027.69
2023-05-03T04:46:26.131Z,1027.71
2023-05-03T04:47:26.017Z,1027.68
2023-05-03T04:48:26.040Z,1027.68
2023-05-03T04:49:25.996Z,1027.70
2023-05-03T04:50:26.024Z,1027.71
2023-05-03T04:51:25.975Z,1027.68
2023-05-03T04:52:25.935Z,1027.74
2023-05-03T04:53:25.940Z,1027.71
2023-05-03T04:54:25.928Z,1027.69
2023-05-03T04:55:25.926Z,1027.71
2023-05-03T04:56:25.909Z,1027.65
2023-05-03T04:57:25.913Z,1027.64
2023-05-03T04:58:25.921Z,1027.67
2023-05-03T04:59:25.919Z,1027.68
2023-05-03T05:00:25.849Z,1027.69
2023-05-03T05:01:25.846Z,1027.69
2023-05-03T05:02:25.860Z,1027.70
2023-05-03T05:03:25.900Z,1027.66
2023-05-03T05:04:25.779Z,1027.69
2023-05-03T05:05:25.753Z,1027.68
2023-05-03T05:06:25.846Z,1027.64
2023-05-03T05:07:25.727Z,1027.67
2023-05-03T05:08:25.709Z,1027.66
2023-05-03T05:09:25.720Z,1027.71
2023-05-03T05:10:25.692Z,1027.71
2023-05-03T05:11:25.729Z,1027.72
2023-05-03T05:12:25.664Z,1027.79
2023-05-03T05:13:25.687Z,1027.77
2023-05-03T05:14:25.636Z,1027.78
2023-05-03T05:15:25.652Z,1027.79
2023-05-03T05:16:25.712Z,1027.83
2023-05-03T05:17:25.778Z,1027.85
2023-05-03T05:18:25.626Z,1027.88
2023-05-03T05:19:25.675Z,1027.92
2023-05-03T05:20:25.602Z,1027.94
2023-05-03T05:21:25.600Z,1027.91
2023-05-03T05:22:25.565Z,1027.92
2023-05-03T05:23:25.606Z,1027.96
2023-05-03T05:24:25.497Z,1027.95
2023-05-03T05:25:25.533Z,1027.95
2023-05-03T05:26:25.491Z,1027.96
2023-05-03T05:27:25.480Z,1027.99
2023-05-03T05:28:25.480Z,1027.99
2023-05-03T05:29:25.450Z,1028.05
2023-05-03T05:30:25.428Z,1028.06
2023-05-03T05:31:25.479Z,1028.12
2023-05-03T05:32:25.381Z,1028.09
2023-05-03T05:33:25.508Z,1028.08
2023-05-03T05:34:25.410Z,1028.10
2023-05-03T05:35:25.390Z,1028.09
2023-05-03T05:36:25.363Z,1028.04
2023-05-03T05:37:25.378Z,1028.08
2023-05-03T05:38:25.384Z,1028.06
2023-05-03T05:39:25.327Z,1028.07
2023-05-03T05:40:25.296Z,1028.14
2023-05-03T05:41:25.313Z,1028.07
2023-05-03T05:42:25.291Z,1028.11
2023-05-03T05:43:25.320Z,1028.11
2023-05-03T05:44:25.260Z,1028.08
2023-05-03T05:45:25.263Z,1028.03
2023-05-03T05:46:25.257Z,1028.04
2023-05-03T05:47:25.442Z,1028.07
2023-05-03T05:48:25.223Z,1028.07
2023-05-03T05:49:25.204Z,1028.10
2023-05-03T05:50:25.190Z,1028.11
2023-05-03T05:51:25.189Z,1028.15
2023-05-03T05:52:25.177Z,1028.14
2023-05-03T05:53:25.145Z,1028.14
2023-05-03T05:54:25.142Z,1028.16
2023-05-03T05:55:25.140Z,1028.18
2023-05-03T05:56:25.106Z,1028.19
2023-05-03T05:57:25.113Z,1028.21
2023-05-03T05:58:25.085Z,1028.19
2023-05-03T05:59:25.091Z,1028.25
2023-05-03T06:00:25.074Z,1028.17
2023-05-03T06:01:25.080Z,1028.17
2023-05-03T06:02:25.164Z,1028.21
2023-05-03T06:03:25.107Z,1028.19
2023-05-03T06:04:25.050Z,1028.21
2023-05-03T06:05:25.108Z,1028.18
2023-05-03T06:06:25.033Z,1028.20
2023-05-03T06:07:24.978Z,1028.15
2023-05-03T06:08:24.994Z,1028.16
2023-05-03T06:09:25.329Z,1028.20
2023-05-03T06:10:24.952Z,1028.20
2023-05-03T06:11:24.951Z,1028.18
2023-05-03T06:12:24.909Z,1028.22
2023-05-03T06:13:24.925Z,1028.24
2023-05-03T06:14:24.946Z,1028.28
2023-05-03T06:15:24.927Z,1028.30
2023-05-03T06:16:24.911Z,1028.26
2023-05-03T06:17:24.933Z,1028.32
2023-05-03T06:18:24.909Z,1028.34
2023-05-03T06:19:24.861Z,1028.35
2023-05-03T06:20:24.833Z,1028.35
2023-05-03T06:21:24.811Z,1028.33
2023-05-03T06:22:24.818Z,1028.33
2023-05-03T06:23:24.806Z,1028.33
2023-05-03T06:24:24.795Z,1028.30
2023-05-03T06:25:24.764Z,1028.31
2023-05-03T06:26:24.764Z,1028.30
2023-05-03T06:27:24.765Z,1028.33
2023-05-03T06:28:24.756Z,1028.32
2023-05-03T06:29:24.717Z,1028.34
2023-05-03T06:30:24.717Z,1028.31
2023-05-03T06:31:24.734Z,1028.33
2023-05-03T06:32:24.718Z,1028.30
2023-05-03T06:33:24.691Z,1028.31
2023-05-03T06:34:24.643Z,1028.30
2023-05-03T06:35:24.734Z,1028.35
2023-05-03T06:36:24.652Z,1028.34
2023-05-03T06:37:25.110Z,1028.37
2023-05-03T06:38:24.610Z,1028.34
2023-05-03T06:39:24.576Z,1028.30
2023-05-03T06:40:24.586Z,1028.28
2023-05-03T06:41:24.651Z,1028.28
2023-05-03T06:42:24.546Z,1028.30
2023-05-03T06:43:24.578Z,1028.32
2023-05-03T06:44:24.651Z,1028.31
2023-05-03T06:45:24.529Z,1028.28
2023-05-03T06:46:24.524Z,1028.26
2023-05-03T06:47:24.487Z,1028.28
2023-05-03T06:48:25.021Z,1028.27
2023-05-03T06:49:24.470Z,1028.29
2023-05-03T06:50:24.439Z,1028.29
2023-05-03T06:51:25.271Z,1028.32
2023-05-03T06:52:24.416Z,1028.33
2023-05-03T06:53:24.411Z,1028.38
2023-05-03T06:54:24.418Z,1028.37
2023-05-03T06:55:27.752Z,1028.42
2023-05-03T06:56:24.375Z,1028.43
2023-05-03T06:57:25.007Z,1028.37
2023-05-03T06:58:24.382Z,1028.36
2023-05-03T06:59:24.348Z,1028.35
2023-05-03T07:00:24.350Z,1028.36
2023-05-03T07:01:24.461Z,1028.36
2023-05-03T07:02:24.462Z,1028.30
2023-05-03T07:03:24.380Z,1028.35
2023-05-03T07:04:24.271Z,1028.32
2023-05-03T07:05:24.493Z,1028.33
2023-05-03T07:06:24.355Z,1028.31
2023-05-03T07:07:24.911Z,1028.32
2023-05-03T07:08:24.251Z,1028.30
2023-05-03T07:09:35.791Z,1028.31
2023-05-03T07:10:25.189Z,1028.27
2023-05-03T07:11:24.206Z,1028.35
2023-05-03T07:12:24.239Z,1028.30
2023-05-03T07:13:24.197Z,1028.29
2023-05-03T07:14:24.163Z,1028.29
2023-05-03T07:15:24.128Z,1028.28
2023-05-03T07:16:24.205Z,1028.25
2023-05-03T07:17:24.144Z,1028.27
2023-05-03T07:18:24.119Z,1028.27
2023-05-03T07:19:24.092Z,1028.25
2023-05-03T07:20:24.093Z,1028.21
2023-05-03T07:21:24.077Z,1028.26
2023-05-03T07:22:24.052Z,1028.27
2023-05-03T07:23:24.014Z,1028.28
2023-05-03T07:24:24.110Z,1028.18
2023-05-03T07:25:24.164Z,1028.13
2023-05-03T07:26:23.969Z,1028.16
2023-05-03T07:27:24.016Z,1028.17
2023-05-03T07:28:23.978Z,1028.10
2023-05-03T07:29:23.976Z,1028.09
2023-05-03T07:30:23.935Z,1028.05
2023-05-03T07:31:23.940Z,1028.03
2023-05-03T07:32:24.016Z,1028.01
2023-05-03T07:33:23.930Z,1028.03
2023-05-03T07:34:23.892Z,1027.98
2023-05-03T07:35:23.858Z,1027.98
2023-05-03T07:36:23.861Z,1028.00
2023-05-03T07:37:23.796Z,1027.99
2023-05-03T07:38:23.793Z,1027.98
2023-05-03T07:39:23.802Z,1027.99
2023-05-03T07:40:23.790Z,1027.91
2023-05-03T07:41:23.789Z,1027.91
2023-05-03T07:42:23.818Z,1027.91
2023-05-03T07:43:23.796Z,1027.87
2023-05-03T07:44:23.703Z,1027.86
2023-05-03T07:45:23.729Z,1027.83
2023-05-03T07:46:23.839Z,1027.83
2023-05-03T07:47:23.706Z,1027.76
2023-05-03T07:48:23.671Z,1027.81
2023-05-03T07:49:23.636Z,1027.78
2023-05-03T07:50:23.641Z,1027.83
2023-05-03T07:51:23.588Z,1027.83
2023-05-03T07:52:23.628Z,1027.85
2023-05-03T07:53:24.450Z,1027.84
2023-05-03T07:54:23.552Z,1027.85
2023-05-03T07:55:23.584Z,1027.86
2023-05-03T07:56:23.535Z,1027.83
2023-05-03T07:57:23.553Z,1027.86
2023-05-03T07:58:35.108Z,1027.90
2023-05-03T07:59:24.479Z,1027.85
2023-05-03T08:00:23.534Z,1027.87
2023-05-03T08:01:23.486Z,1027.89
2023-05-03T08:02:23.526Z,1027.91
2023-05-03T08:03:23.664Z,1027.89
2023-05-03T08:04:23.619Z,1027.87
2023-05-03T08:05:23.438Z,1027.87
2023-05-03T08:06:23.458Z,1027.81
2023-05-03T08:07:23.375Z,1027.91
2023-05-03T08:08:23.372Z,1027.85
2023-05-03T08:09:23.404Z,1027.81
2023-05-03T08:10:23.463Z,1027.83
2023-05-03T08:11:23.347Z,1027.72
2023-05-03T08:12:23.369Z,1027.71
2023-05-03T08:13:23.333Z,1027.76
2023-05-03T08:14:23.364Z,1027.70
2023-05-03T08:15:23.264Z,1027.67
2023-05-03T08:16:23.422Z,1027.69
2023-05-03T08:17:24.563Z,1027.67
2023-05-03T08:18:23.918Z,1027.71
2023-05-03T08:19:23.275Z,1027.72
2023-05-03T08:20:23.270Z,1027.70
2023-05-03T08:21:23.163Z,1027.68
2023-05-03T08:22:23.218Z,1027.71
2023-05-03T08:23:23.202Z,1027.74
2023-05-03T08:24:23.185Z,1027.75
2023-05-03T08:25:23.582Z,1027.77
2023-05-03T08:26:23.081Z,1027.77
2023-05-03T08:27:23.076Z,1027.75
2023-05-03T08:28:23.083Z,1027.76
2023-05-03T08:29:23.047Z,1027.76
2023-05-03T08:30:23.124Z,1027.73
2023-05-03T08:31:23.077Z,1027.67
2023-05-03T08:32:23.048Z,1027.63
2023-05-03T08:33:23.022Z,1027.68
2023-05-03T08:34:23.393Z,1027.69
2023-05-03T08:35:24.469Z,1027.66
2023-05-03T08:36:22.977Z,1027.66
2023-05-03T08:37:23.052Z,1027.64
2023-05-03T08:38:22.939Z,1027.68
2023-05-03T08:39:22.932Z,1027.59
2023-05-03T08:40:22.929Z,1027.53
2023-05-03T08:41:22.941Z,1027.52
2023-05-03T08:42:24.514Z,1027.56
2023-05-03T08:43:22.896Z,1027.55
2023-05-03T08:44:22.855Z,1027.53
2023-05-03T08:45:22.881Z,1027.56
2023-05-03T08:46:22.844Z,1027.60
2023-05-03T08:47:22.784Z,1027.60
2023-05-03T08:48:22.834Z,1027.54
2023-05-03T08:49:22.825Z,1027.61
2023-05-03T08:50:22.764Z,1027.58
2023-05-03T08:51:22.735Z,1027.58
2023-05-03T08:52:22.896Z,1027.56
2023-05-03T08:53:22.685Z,1027.57
2023-05-03T08:54:22.684Z,1027.56
2023-05-03T08:55:22.706Z,1027.56
2023-05-03T08:56:22.695Z,1027.56
2023-05-03T08:57:22.685Z,1027.53
2023-05-03T08:58:22.629Z,1027.55
2023-05-03T08:59:22.632Z,1027.55
2023-05-03T09:00:22.609Z,1027.53
2023-05-03T09:01:22.730Z,1027.52
2023-05-03T09:02:22.633Z,1027.51
2023-05-03T09:03:22.806Z,1027.46
2023-05-03T09:04:22.655Z,1027.46
2023-05-03T09:05:22.641Z,1027.46
2023-05-03T09:06:22.549Z,1027.45
2023-05-03T09:07:22.553Z,1027.47
2023-05-03T09:08:22.508Z,1027.47
2023-05-03T09:09:22.535Z,1027.48
2023-05-03T09:10:22.474Z,1027.50
2023-05-03T09:11:22.431Z,1027.43
2023-05-03T09:12:22.496Z,1027.46
2023-05-03T09:13:22.488Z,1027.43
2023-05-03T09:14:22.419Z,1027.46
2023-05-03T09:15:22.453Z,1027.50
2023-05-03T09:16:22.529Z,1027.48
2023-05-03T09:17:22.344Z,1027.54
2023-05-03T09:18:22.493Z,1027.53
2023-05-03T09:19:22.346Z,1027.54
2023-05-03T09:20:22.407Z,1027.50
2023-05-03T09:21:22.380Z,1027.52
2023-05-03T09:22:22.315Z,1027.51
2023-05-03T09:23:22.347Z,1027.47
2023-05-03T09:24:22.291Z,1027.42
2023-05-03T09:25:22.257Z,1027.37
2023-05-03T09:26:22.268Z,1027.41
2023-05-03T09:27:22.250Z,1027.36
2023-05-03T09:28:22.242Z,1027.32
2023-05-03T09:29:22.210Z,1027.30
2023-05-03T09:30:22.152Z,1027.32
2023-05-03T09:31:22.184Z,1027.30
2023-05-03T09:32:22.219Z,1027.25
2023-05-03T09:33:22.436Z,1027.32
2023-05-03T09:34:22.115Z,1027.33
2023-05-03T09:35:22.131Z,1027.34
2023-05-03T09:36:22.088Z,1027.35
2023-05-03T09:37:22.087Z,1027.39
2023-05-03T09:38:22.077Z,1027.33
2023-05-03T09:39:22.057Z,1027.33
2023-05-03T09:41:36.190Z,1027.37
2023-05-03T09:42:36.171Z,1027.31
2023-05-03T09:43:36.193Z,1027.32
2023-05-03T09:44:36.080Z,1027.28
2023-05-03T09:45:36.141Z,1027.31
2023-05-03T09:46:36.684Z,1027.31
2023-05-03T09:47:36.083Z,1027.25
2023-05-03T09:48:36.056Z,1027.23
2023-05-03T09:49:36.041Z,1027.22
2023-05-03T09:50:36.029Z,1027.21
2023-05-03T09:51:36.002Z,1027.24
2023-05-03T09:52:36.002Z,1027.21
2023-05-03T09:53:35.991Z,1027.21
2023-05-03T09:54:35.950Z,1027.16
2023-05-03T09:55:35.959Z,1027.19
2023-05-03T09:56:36.006Z,1027.16
2023-05-03T09:57:35.895Z,1027.12
2023-05-03T09:58:35.896Z,1027.13
2023-05-03T09:59:35.942Z,1027.06
2023-05-03T10:00:35.893Z,1027.03
2023-05-03T10:01:35.867Z,1027.04
2023-05-03T10:02:35.887Z,1027.04
2023-05-03T10:03:35.831Z,1027.03
2023-05-03T10:04:35.818Z,1027.04
2023-05-03T10:05:35.825Z,1027.02
2023-05-03T10:06:35.951Z,1027.05
2023-05-03T10:07:35.827Z,1026.93
2023-05-03T10:08:35.761Z,1026.98
2023-05-03T10:09:35.724Z,1026.93
2023-05-03T10:10:35.711Z,1026.92
2023-05-03T10:11:35.709Z,1026.88
2023-05-03T10:12:35.690Z,1026.90
2023-05-03T10:13:35.691Z,1026.89
2023-05-03T10:14:35.672Z,1026.90
2023-05-03T10:15:35.686Z,1026.88
2023-05-03T10:16:35.672Z,1026.89
2023-05-03T10:17:47.929Z,1026.89
2023-05-03T10:18:36.625Z,1026.91
2023-05-03T10:19:35.589Z,1026.94
2023-05-03T10:20:35.588Z,1026.87
2023-05-03T10:21:35.566Z,1026.88
2023-05-03T10:22:35.597Z,1026.84
2023-05-03T10:23:35.539Z,1026.87
2023-05-03T10:24:35.567Z,1026.86
2023-05-03T10:25:35.504Z,1026.93
2023-05-03T10:26:35.496Z,1026.90
2023-05-03T10:27:35.489Z,1026.92
2023-05-03T10:28:35.506Z,1026.92
2023-05-03T10:29:35.473Z,1026.92
2023-05-03T10:30:35.458Z,1026.93
2023-05-03T10:31:35.529Z,1026.87
2023-05-03T10:32:35.599Z,1026.93
2023-05-03T10:33:35.671Z,1026.90
2023-05-03T10:34:35.420Z,1026.89
2023-05-03T10:35:35.372Z,1026.94
2023-05-03T10:36:48.529Z,1026.95
2023-05-03T10:37:36.345Z,1026.97
2023-05-03T10:38:35.325Z,1026.95
2023-05-03T10:39:35.324Z,1026.97
2023-05-03T10:40:35.505Z,1026.93
2023-05-03T10:41:35.322Z,1026.98
2023-05-03T10:42:35.262Z,1026.98
2023-05-03T10:43:35.263Z,1026.96
2023-05-03T10:44:35.246Z,1026.93
2023-05-03T10:45:35.225Z,1026.93
2023-05-03T10:46:35.323Z,1027.01
2023-05-03T10:47:35.340Z,1026.98
2023-05-03T10:48:35.201Z,1026.93
2023-05-03T10:49:35.161Z,1026.90
2023-05-03T10:50:35.156Z,1026.92
2023-05-03T10:51:35.152Z,1026.88
2023-05-03T10:52:35.144Z,1026.85
2023-05-03T10:53:35.210Z,1026.88
2023-05-03T10:54:35.101Z,1026.80
2023-05-03T10:55:35.085Z,1026.74
2023-05-03T10:56:35.105Z,1026.68
2023-05-03T10:57:35.210Z,1026.69
2023-05-03T10:58:35.238Z,1026.66
2023-05-03T10:59:35.044Z,1026.70
2023-05-03T11:00:35.077Z,1026.64
2023-05-03T11:01:35.046Z,1026.63
2023-05-03T11:02:35.049Z,1026.70
2023-05-03T11:03:35.010Z,1026.62
2023-05-03T11:04:35.093Z,1026.65
2023-05-03T11:05:34.964Z,1026.68
2023-05-03T11:06:34.999Z,1026.68
2023-05-03T11:07:34.951Z,1026.66
2023-05-03T11:08:34.944Z,1026.66
2023-05-03T11:09:34.935Z,1026.64
2023-05-03T11:10:34.919Z,1026.58
2023-05-03T11:11:34.966Z,1026.64
2023-05-03T11:12:34.848Z,1026.58
2023-05-03T11:13:34.933Z,1026.52
2023-05-03T11:14:34.871Z,1026.48
2023-05-03T11:15:34.876Z,1026.51
2023-05-03T11:16:34.900Z,1026.51
2023-05-03T11:17:34.814Z,1026.52
2023-05-03T11:18:34.787Z,1026.47
2023-05-03T11:19:34.755Z,1026.47
2023-05-03T11:20:34.865Z,1026.48
2023-05-03T11:21:34.771Z,1026.50
2023-05-03T11:22:34.759Z,1026.41
2023-05-03T11:23:34.710Z,1026.40
2023-05-03T11:24:34.688Z,1026.44
2023-05-03T11:25:34.725Z,1026.40
2023-05-03T11:26:34.667Z,1026.42
2023-05-03T11:27:34.706Z,1026.40
2023-05-03T11:28:34.672Z,1026.41
2023-05-03T11:29:34.631Z,1026.38
2023-05-03T11:30:34.660Z,1026.32
2023-05-03T11:31:34.613Z,1026.26
2023-05-03T11:32:34.636Z,1026.32
2023-05-03T11:33:34.597Z,1026.33
2023-05-03T11:34:34.594Z,1026.36
2023-05-03T11:35:34.572Z,1026.37
2023-05-03T11:36:34.543Z,1026.31
2023-05-03T11:37:34.599Z,1026.31
2023-05-03T11:38:34.541Z,1026.31
2023-05-03T11:39:34.714Z,1026.23
2023-05-03T11:40:34.473Z,1026.24
2023-05-03T11:41:34.490Z,1026.28
2023-05-03T11:42:34.545Z,1026.27
2023-05-03T11:43:34.461Z,1026.21
2023-05-03T11:44:34.517Z,1026.21
2023-05-03T11:45:34.566Z,1026.24
2023-05-03T11:46:34.496Z,1026.22
2023-05-03T11:47:34.471Z,1026.21
2023-05-03T11:48:34.439Z,1026.28
2023-05-03T11:49:34.409Z,1026.24
2023-05-03T11:50:34.375Z,1026.24
2023-05-03T11:51:34.339Z,1026.20
2023-05-03T11:52:34.317Z,1026.20
2023-05-03T11:53:34.364Z,1026.20
2023-05-03T11:54:34.314Z,1026.22
2023-05-03T11:55:34.374Z,1026.23
2023-05-03T11:56:34.293Z,1026.18
2023-05-03T11:57:34.257Z,1026.12
2023-05-03T11:58:34.307Z,1026.16
2023-05-03T11:59:34.253Z,1026.14
2023-05-03T12:00:34.259Z,1026.20
2023-05-03T12:01:34.324Z,1026.21
2023-05-03T12:02:34.416Z,1026.21
2023-05-03T12:03:34.618Z,1026.22
2023-05-03T12:04:34.328Z,1026.20
2023-05-03T12:05:34.305Z,1026.17
2023-05-03T12:06:35.772Z,1026.14